Lachute, Canada
Current Conditions -  °F | °C
As of 10:00 PM on Saturday 22 Nov 2014 (Local Time) from CYMX Reporting Station
Drizzle Drizzle  
Wind Chill: 29°   Ceiling: 200
Heat Index: 34°   Visibility: 1mi
Dew Point: 34°   Wind: 6mph
Humidity: 100%   Direction: 240°WSW
Pressure: 29.87"   Gusts: NA
Location:  45.65°N, 74.33°W
Report Text: CYMX 230300Z 24005KT 1SM -DZ BR VV002 01/01 A2987 RMK FG8 SLP120
Loading
Personal Weather Stations






























Interactive Weather Map New forecast layout! Learn more

10-Day Weather Forecast

Advertisements
Track Severe Weather on mobile